createdAt,value
2023-02-03T00:01:48.141Z,100684.47
2023-02-03T00:04:14.733Z,100670.94
2023-02-03T00:06:41.120Z,100686.53
2023-02-03T00:09:08.041Z,100693.16
2023-02-03T00:11:34.533Z,100686.25
2023-02-03T00:14:01.050Z,100695.19
2023-02-03T00:16:27.659Z,100699.56
2023-02-03T00:18:54.161Z,100693.41
2023-02-03T00:21:20.556Z,100696.09
2023-02-03T00:23:47.009Z,100692.25
2023-02-03T00:26:16.026Z,100694.94
2023-02-03T00:28:42.818Z,100691.25
2023-02-03T00:31:20.884Z,100690.09
2023-02-03T00:33:47.825Z,100688.28
2023-02-03T00:36:14.372Z,100689.69
2023-02-03T00:38:41.165Z,100688.78
2023-02-03T00:41:07.565Z,100672.63
2023-02-03T00:43:34.063Z,100671.22
2023-02-03T00:46:00.657Z,100677.06
2023-02-03T00:48:27.362Z,100669.16
2023-02-03T00:50:53.802Z,100668.38
2023-02-03T00:53:20.273Z,100675.53
2023-02-03T00:55:46.753Z,100687.78
2023-02-03T00:58:13.146Z,100694.44
2023-02-03T01:00:39.683Z,100689.34
2023-02-03T01:03:06.166Z,100676.03
2023-02-03T01:05:32.588Z,100674.50
2023-02-03T01:08:00.153Z,100666.84
2023-02-03T01:10:27.254Z,100669.66
2023-02-03T01:12:53.958Z,100654.84
2023-02-03T01:15:20.761Z,100667.75
2023-02-03T01:17:47.156Z,100666.09
2023-02-03T01:20:13.970Z,100652.69
2023-02-03T01:22:40.412Z,100655.50
2023-02-03T01:25:07.300Z,100647.84
2023-02-03T01:27:33.724Z,100645.94
2023-02-03T01:30:00.216Z,100643.63
2023-02-03T01:32:27.245Z,100639.03
2023-02-03T01:34:53.659Z,100629.72
2023-02-03T01:37:20.167Z,100625.50
2023-02-03T01:39:46.548Z,100613.09
2023-02-03T01:42:14.494Z,100595.50
2023-02-03T01:44:41.125Z,100586.19
2023-02-03T01:47:54.797Z,100572.41
2023-02-03T01:50:25.798Z,100570.63
2023-02-03T01:52:56.990Z,100576.22
2023-02-03T01:55:26.864Z,100584.28
2023-02-03T01:57:59.938Z,100574.19
2023-02-03T02:00:27.207Z,100583.63
2023-02-03T02:02:54.128Z,100572.66
2023-02-03T02:05:27.592Z,100580.31
2023-02-03T02:07:55.008Z,100574.19
2023-02-03T02:10:21.444Z,100570.22
2023-02-03T02:12:48.086Z,100567.31
2023-02-03T02:15:14.538Z,100575.22
2023-02-03T02:17:52.915Z,100574.81
2023-02-03T02:20:32.849Z,100581.84
2023-02-03T02:23:35.356Z,100572.53
2023-02-03T02:26:29.579Z,100563.97
2023-02-03T02:29:20.207Z,100568.47
2023-02-03T02:31:56.235Z,100558.09
2023-02-03T02:34:44.103Z,100565.00
2023-02-03T02:37:23.467Z,100566.16
2023-02-03T02:39:58.193Z,100561.94
2023-02-03T02:42:35.958Z,100570.34
2023-02-03T02:45:10.856Z,100569.19
2023-02-03T02:47:37.894Z,100570.84
2023-02-03T02:50:13.950Z,100577.75
2023-02-03T02:52:43.053Z,100573.41
2023-02-03T02:55:24.514Z,100575.44
2023-02-03T02:57:53.770Z,100580.56
2023-02-03T03:00:20.786Z,100583.09
2023-02-03T03:02:47.548Z,100607.88
2023-02-03T03:05:15.629Z,100616.16
2023-02-03T03:07:48.856Z,100632.63
2023-02-03T03:10:18.938Z,100636.63
2023-02-03T03:12:48.054Z,100632.13
2023-02-03T03:15:34.589Z,100614.38
2023-02-03T03:18:06.076Z,100620.41
2023-02-03T03:20:33.606Z,100619.50
2023-02-03T03:23:04.412Z,100626.25
2023-02-03T03:25:36.643Z,100642.47
2023-02-03T03:28:10.145Z,100645.69
2023-02-03T03:30:37.417Z,100625.50
2023-02-03T03:33:04.915Z,100627.16
2023-02-03T03:35:38.889Z,100625.25
2023-02-03T03:38:09.909Z,100630.84
2023-02-03T03:40:40.169Z,100624.72
2023-02-03T03:43:14.260Z,100613.50
2023-02-03T03:45:46.798Z,100622.16
2023-02-03T03:48:31.126Z,100626.13
2023-02-03T03:51:01.305Z,100624.84
2023-02-03T03:53:29.067Z,100606.84
2023-02-03T03:55:56.178Z,100602.38
2023-02-03T03:58:31.789Z,100605.81
2023-02-03T04:01:02.099Z,100592.56
2023-02-03T04:03:32.752Z,100600.97
2023-02-03T04:05:59.209Z,100601.47
2023-02-03T04:08:25.613Z,100596.38
2023-02-03T04:10:52.151Z,100590.13
2023-02-03T04:13:20.452Z,100592.66
2023-02-03T04:15:47.028Z,100587.06
2023-02-03T04:18:14.812Z,100589.22
2023-02-03T04:20:41.618Z,100587.72
2023-02-03T04:23:08.614Z,100589.13
2023-02-03T04:25:35.177Z,100604.81
2023-02-03T04:28:01.804Z,100604.53
2023-02-03T04:30:28.576Z,100604.69
2023-02-03T04:32:55.261Z,100602.88
2023-02-03T04:35:21.852Z,100610.94
2023-02-03T04:37:48.231Z,100612.75
2023-02-03T04:40:14.737Z,100617.84
2023-02-03T04:42:41.720Z,100615.28
2023-02-03T04:45:09.670Z,100620.91
2023-02-03T04:47:36.528Z,100621.66
2023-02-03T04:50:03.538Z,100621.91
2023-02-03T04:52:29.921Z,100627.28
2023-02-03T04:54:56.803Z,100625.25
2023-02-03T04:57:23.207Z,100624.22
2023-02-03T04:59:49.659Z,100624.47
2023-02-03T05:02:16.120Z,100616.94
2023-02-03T05:04:42.527Z,100623.97
2023-02-03T05:07:09.663Z,100626.50
2023-02-03T05:09:36.403Z,100637.13
2023-02-03T05:12:02.810Z,100630.72
2023-02-03T05:14:29.211Z,100619.25
2023-02-03T05:16:55.779Z,100593.06
2023-02-03T05:19:22.309Z,100606.22
2023-02-03T05:21:48.738Z,100612.19
2023-02-03T05:24:15.291Z,100609.16
2023-02-03T05:26:41.712Z,100599.06
2023-02-03T05:29:08.380Z,100592.56
2023-02-03T05:31:35.180Z,100588.97
2023-02-03T05:34:01.636Z,100618.72
2023-02-03T05:36:28.077Z,100615.53
2023-02-03T05:38:54.485Z,100605.09
2023-02-03T05:41:39.381Z,100609.94
2023-02-03T05:44:05.804Z,100615.66
2023-02-03T05:46:32.240Z,100589.22
2023-02-03T05:48:58.661Z,100598.94
2023-02-03T05:51:25.165Z,100588.88
2023-02-03T05:53:51.817Z,100594.34
2023-02-03T05:56:18.239Z,100599.19
2023-02-03T05:58:44.666Z,100598.44
2023-02-03T06:01:11.883Z,100602.00
2023-02-03T06:03:38.520Z,100606.75
2023-02-03T06:06:05.109Z,100594.59
2023-02-03T06:08:31.526Z,100601.75
2023-02-03T06:10:59.707Z,100598.19
2023-02-03T06:13:26.845Z,100596.53
2023-02-03T06:15:53.279Z,100596.63
2023-02-03T06:18:19.798Z,100602.00
2023-02-03T06:20:46.251Z,100604.31
2023-02-03T06:23:12.690Z,100589.50
2023-02-03T06:25:39.104Z,100589.50
2023-02-03T06:28:05.625Z,100601.75
2023-02-03T06:30:32.090Z,100597.28
2023-02-03T06:32:58.501Z,100595.13
2023-02-03T06:35:24.999Z,100591.78
2023-02-03T06:37:51.437Z,100591.78
2023-02-03T06:40:18.173Z,100602.78
2023-02-03T06:42:48.353Z,100610.56
2023-02-03T06:45:15.540Z,100615.31
2023-02-03T06:47:42.835Z,100598.44
2023-02-03T06:50:11.873Z,100577.88
2023-02-03T06:52:38.511Z,100582.38
2023-02-03T06:55:05.566Z,100572.41
2023-02-03T06:57:32.432Z,100576.22
2023-02-03T06:59:59.111Z,100592.56
2023-02-03T07:02:25.625Z,100595.25
2023-02-03T07:04:52.117Z,100600.75
2023-02-03T07:07:18.541Z,100596.66
2023-02-03T07:09:46.124Z,100601.00
2023-02-03T07:12:12.565Z,100600.50
2023-02-03T07:14:39.469Z,100580.81
2023-02-03T07:17:06.946Z,100605.34
2023-02-03T07:19:33.406Z,100605.09
2023-02-03T07:21:59.889Z,100604.94
2023-02-03T07:24:26.334Z,100619.75
2023-02-03T07:26:53.186Z,100612.09
2023-02-03T07:29:19.567Z,100615.81
2023-02-03T07:31:46.087Z,100617.59
2023-02-03T07:34:12.615Z,100628.06
2023-02-03T07:36:39.014Z,100623.06
2023-02-03T07:39:05.472Z,100629.22
2023-02-03T07:41:31.936Z,100636.72
2023-02-03T07:43:58.322Z,100644.63
2023-02-03T07:46:24.959Z,100635.19
2023-02-03T07:48:51.400Z,100629.22
2023-02-03T07:51:17.916Z,100635.06
2023-02-03T07:53:45.142Z,100652.69
2023-02-03T07:56:12.061Z,100659.19
2023-02-03T07:58:38.878Z,100659.44
2023-02-03T08:01:13.874Z,100660.47
2023-02-03T08:03:40.969Z,100666.59
2023-02-03T08:06:08.307Z,100667.63
2023-02-03T08:08:35.162Z,100677.06
2023-02-03T08:11:01.606Z,100669.56
2023-02-03T08:13:28.079Z,100679.78
2023-02-03T08:15:54.655Z,100665.97
2023-02-03T08:18:21.123Z,100684.59
2023-02-03T08:20:48.130Z,100677.81
2023-02-03T08:23:14.663Z,100687.28
2023-02-03T08:25:41.058Z,100685.38
2023-02-03T08:28:07.557Z,100687.03
2023-02-03T08:30:34.106Z,100682.94
2023-02-03T08:33:00.618Z,100703.00
2023-02-03T08:35:27.566Z,100703.63
2023-02-03T08:37:54.147Z,100713.81
2023-02-03T08:40:20.676Z,100700.56
2023-02-03T08:42:47.101Z,100700.81
2023-02-03T08:45:13.970Z,100694.69
2023-02-03T08:47:40.491Z,100672.34
2023-02-03T08:50:08.236Z,100678.47
2023-02-03T08:52:34.811Z,100675.78
2023-02-03T08:55:01.248Z,100680.38
2023-02-03T08:57:27.657Z,100687.53
2023-02-03T08:59:54.891Z,100687.78
2023-02-03T09:02:21.379Z,100696.59
2023-02-03T09:04:48.998Z,100679.63
2023-02-03T09:07:16.692Z,100672.59
2023-02-03T09:09:43.159Z,100686.53
2023-02-03T09:12:11.526Z,100682.69
2023-02-03T09:14:38.044Z,100676.31
2023-02-03T09:17:05.203Z,100664.19
2023-02-03T09:19:32.050Z,100669.16
2023-02-03T09:21:59.846Z,100671.19
2023-02-03T09:24:29.346Z,100681.41
2023-02-03T09:26:56.146Z,100687.44
2023-02-03T09:29:23.272Z,100681.91
2023-02-03T09:31:52.936Z,100685.63
2023-02-03T09:34:20.557Z,100674.41
2023-02-03T09:36:47.260Z,100672.19
2023-02-03T09:39:14.081Z,100690.72
2023-02-03T09:42:02.464Z,100695.34
2023-02-03T09:45:04.055Z,100708.09
2023-02-03T09:47:35.065Z,100703.91
2023-02-03T09:50:03.757Z,100703.34
2023-02-03T09:52:39.738Z,100701.34
2023-02-03T09:55:24.765Z,100678.84
2023-02-03T09:58:16.286Z,100668.88
2023-02-03T10:00:51.716Z,100669.78
2023-02-03T10:03:46.165Z,100675.25
2023-02-03T10:06:18.560Z,100692.13
2023-02-03T10:09:06.827Z,100689.06
2023-02-03T10:12:05.275Z,100693.69
2023-02-03T10:14:34.717Z,100696.22
2023-02-03T10:17:30.266Z,100685.13
2023-02-03T10:20:36.183Z,100681.16
2023-02-03T10:23:07.318Z,100690.72
2023-02-03T10:25:42.742Z,100680.34
2023-02-03T10:28:15.092Z,100671.81
2023-02-03T10:30:45.566Z,100689.81
2023-02-03T10:33:17.661Z,100692.75
2023-02-03T10:35:56.598Z,100693.13
2023-02-03T10:39:01.555Z,100671.94
2023-02-03T10:41:29.632Z,100667.88
2023-02-03T10:43:57.685Z,100661.72
2023-02-03T10:46:32.798Z,100664.28
2023-02-03T10:48:59.269Z,100664.03
2023-02-03T10:51:27.659Z,100656.34
2023-02-03T10:53:54.499Z,100643.34
2023-02-03T10:56:46.444Z,100638.97
2023-02-03T10:59:28.341Z,100628.00
2023-02-03T11:01:54.914Z,100637.72
2023-02-03T11:04:24.311Z,100648.44
2023-02-03T11:07:05.979Z,100626.59
2023-02-03T11:09:41.262Z,100625.03
2023-02-03T11:12:13.470Z,100618.78
2023-02-03T11:14:44.201Z,100609.34
2023-02-03T11:17:26.145Z,100615.69
2023-02-03T11:19:54.442Z,100618.78
2023-02-03T11:22:37.271Z,100616.34
2023-02-03T11:25:05.834Z,100616.72
2023-02-03T11:27:33.169Z,100628.84
2023-02-03T11:30:16.433Z,100622.59
2023-02-03T11:32:43.594Z,100623.59
2023-02-03T11:35:25.159Z,100621.06
2023-02-03T11:37:53.899Z,100626.16
2023-02-03T11:40:20.187Z,100615.69
2023-02-03T11:42:49.576Z,100619.66
2023-02-03T11:45:41.899Z,100617.75
2023-02-03T11:48:25.243Z,100618.63
2023-02-03T11:50:51.556Z,100623.84
2023-02-03T11:53:23.030Z,100629.75
2023-02-03T11:56:28.458Z,100624.88
2023-02-03T11:59:21.228Z,100611.59
2023-02-03T12:02:03.017Z,100605.44
2023-02-03T12:04:58.714Z,100598.91
2023-02-03T12:07:29.077Z,100597.41
2023-02-03T12:10:34.566Z,100606.97
2023-02-03T12:13:43.069Z,100602.38
2023-02-03T12:16:09.544Z,100607.44
2023-02-03T12:19:13.239Z,100612.28
2023-02-03T12:21:49.141Z,100613.81
2023-02-03T12:24:30.818Z,100624.16
2023-02-03T12:27:17.400Z,100619.91
2023-02-03T12:29:49.226Z,100635.38
2023-02-03T12:32:43.592Z,100636.78
2023-02-03T12:35:52.872Z,100627.81
2023-02-03T12:38:25.198Z,100624.50
2023-02-03T12:40:59.242Z,100627.28
2023-02-03T12:43:38.888Z,100642.63
2023-02-03T12:46:16.266Z,100641.09
2023-02-03T12:48:58.010Z,100638.53
2023-02-03T12:51:54.712Z,100633.16
2023-02-03T12:54:45.261Z,100622.44
2023-02-03T12:57:27.096Z,100628.03
2023-02-03T13:00:15.732Z,100621.16
2023-02-03T13:02:56.884Z,100615.81
2023-02-03T13:05:28.659Z,100601.22
2023-02-03T13:08:19.476Z,100610.69
2023-02-03T13:10:55.066Z,100607.59
2023-02-03T13:13:28.308Z,100598.25
2023-02-03T13:15:56.340Z,100587.91
2023-02-03T13:18:34.811Z,100590.47
2023-02-03T13:21:01.221Z,100582.91
2023-02-03T13:23:27.761Z,100578.47
2023-02-03T13:25:57.111Z,100561.56
2023-02-03T13:28:33.256Z,100571.25
2023-02-03T13:31:27.533Z,100558.22
2023-02-03T13:34:06.594Z,100550.69
2023-02-03T13:37:07.068Z,100561.81
2023-02-03T13:39:40.179Z,100558.06
2023-02-03T13:42:19.001Z,100553.84
2023-02-03T13:44:46.810Z,100558.59
2023-02-03T13:47:28.411Z,100546.47
2023-02-03T13:49:59.861Z,100556.03
2023-02-03T13:52:29.544Z,100564.72
2023-02-03T13:54:56.665Z,100565.63
2023-02-03T13:57:31.597Z,100563.53
2023-02-03T13:59:58.040Z,100571.44
2023-02-03T14:02:24.448Z,100569.91
2023-02-03T14:04:54.056Z,100573.69
2023-02-03T14:07:23.871Z,100569.47
2023-02-03T14:10:12.194Z,100564.13
2023-02-03T14:13:00.129Z,100567.03
2023-02-03T14:15:28.282Z,100571.25
2023-02-03T14:17:56.211Z,100575.47
2023-02-03T14:20:25.776Z,100570.38
2023-02-03T14:23:07.341Z,100584.81
2023-02-03T14:25:38.681Z,100574.50
2023-02-03T14:28:11.735Z,100575.47
2023-02-03T14:31:12.218Z,100565.25
2023-02-03T14:34:15.412Z,100559.25
2023-02-03T14:36:49.065Z,100567.81
2023-02-03T14:39:18.728Z,100565.50
2023-02-03T14:42:22.410Z,100577.28
2023-02-03T14:44:54.902Z,100578.31
2023-02-03T14:47:46.275Z,100575.97
2023-02-03T14:50:37.993Z,100589.56
2023-02-03T14:53:24.328Z,100578.44
2023-02-03T14:55:53.686Z,100580.09
2023-02-03T14:58:38.075Z,100575.63
2023-02-03T15:01:05.116Z,100570.38
2023-02-03T15:03:31.644Z,100574.59
2023-02-03T15:06:01.473Z,100577.53
2023-02-03T15:08:45.311Z,100579.06
2023-02-03T15:11:43.008Z,100592.63
2023-02-03T15:14:22.122Z,100591.25
2023-02-03T15:16:53.524Z,100583.94
2023-02-03T15:19:23.469Z,100587.28
2023-02-03T15:21:49.889Z,100580.59
2023-02-03T15:24:22.922Z,100588.94
2023-02-03T15:26:56.234Z,100592.63
2023-02-03T15:29:33.155Z,100593.41
2023-02-03T15:32:08.331Z,100586.47
2023-02-03T15:34:53.515Z,100592.63
2023-02-03T15:37:32.174Z,100605.28
2023-02-03T15:40:03.213Z,100607.97
2023-02-03T15:42:35.718Z,100600.84
2023-02-03T15:45:20.781Z,100625.66
2023-02-03T15:47:58.115Z,100621.66
2023-02-03T15:50:43.596Z,100626.91
2023-02-03T15:53:16.229Z,100621.44
2023-02-03T15:55:45.933Z,100623.19
2023-02-03T15:58:33.116Z,100619.75
2023-02-03T16:01:03.059Z,100625.75
2023-02-03T16:03:49.529Z,100607.50
2023-02-03T16:06:18.460Z,100616.56
2023-02-03T16:08:48.767Z,100621.81
2023-02-03T16:11:31.988Z,100628.97
2023-02-03T16:14:03.241Z,100618.50
2023-02-03T16:16:30.695Z,100620.81
2023-02-03T16:19:03.809Z,100609.03
2023-02-03T16:21:36.172Z,100616.19
2023-02-03T16:24:05.374Z,100626.19
2023-02-03T16:26:33.549Z,100620.31
2023-02-03T16:29:28.045Z,100631.97
2023-02-03T16:32:13.815Z,100644.84
2023-02-03T16:34:59.020Z,100646.88
2023-02-03T16:37:52.437Z,100644.84
2023-02-03T16:40:42.189Z,100647.41
2023-02-03T16:43:31.958Z,100644.09
2023-02-03T16:46:18.124Z,100645.97
2023-02-03T16:49:03.268Z,100655.22
2023-02-03T16:51:37.797Z,100661.56
2023-02-03T16:54:04.300Z,100662.22
2023-02-03T16:56:30.727Z,100657.34
2023-02-03T16:58:57.470Z,100658.13
2023-02-03T17:01:24.637Z,100659.44
2023-02-03T17:03:51.750Z,100656.88
2023-02-03T17:06:18.237Z,100659.19
2023-02-03T17:08:44.626Z,100658.41
2023-02-03T17:11:15.907Z,100659.44
2023-02-03T17:13:42.678Z,100663.66
2023-02-03T17:16:20.412Z,100665.44
2023-02-03T17:18:47.194Z,100656.50
2023-02-03T17:21:16.538Z,100661.63
2023-02-03T17:23:43.685Z,100663.28
2023-02-03T17:26:10.522Z,100653.94
2023-02-03T17:28:39.468Z,100654.59
2023-02-03T17:31:07.043Z,100656.28
2023-02-03T17:33:34.515Z,100660.63
2023-02-03T17:36:17.978Z,100659.97
2023-02-03T17:55:12.571Z,100683.97
2023-02-03T17:57:39.390Z,100688.31
2023-02-03T18:00:06.530Z,100686.28
2023-02-03T18:02:33.227Z,100681.91
2023-02-03T18:04:59.702Z,100679.22
2023-02-03T18:07:26.066Z,100692.16
2023-02-03T18:09:52.562Z,100690.50
2023-02-03T18:12:18.934Z,100690.34
2023-02-03T18:14:45.346Z,100696.63
2023-02-03T18:17:11.817Z,100693.94
2023-02-03T18:19:39.021Z,100689.84
2023-02-03T18:22:06.381Z,100692.50
2023-02-03T18:24:32.985Z,100694.06
2023-02-03T18:27:00.627Z,100708.50
2023-02-03T18:29:28.425Z,100711.53
2023-02-03T18:31:54.956Z,100722.91
2023-02-03T18:34:21.411Z,100722.69
2023-02-03T18:36:47.800Z,100712.44
2023-02-03T18:39:15.345Z,100716.94
2023-02-03T18:41:42.803Z,100712.06
2023-02-03T18:44:09.441Z,100706.03
2023-02-03T18:46:35.932Z,100699.78
2023-02-03T18:49:02.384Z,100702.22
2023-02-03T18:51:28.861Z,100710.25
2023-02-03T18:53:59.668Z,100708.84
2023-02-03T18:56:34.726Z,100717.50
2023-02-03T18:59:09.588Z,100719.97
2023-02-03T19:01:40.175Z,100719.22
2023-02-03T19:04:06.843Z,100710.50
2023-02-03T19:06:34.305Z,100707.16
2023-02-03T19:09:01.178Z,100703.56
2023-02-03T19:11:28.390Z,100709.59
2023-02-03T19:13:54.911Z,100714.84
2023-02-03T19:16:21.437Z,100723.19
2023-02-03T19:18:47.994Z,100722.75
2023-02-03T19:21:14.640Z,100722.00
2023-02-03T19:23:41.786Z,100721.88
2023-02-03T19:26:09.866Z,100727.47
2023-02-03T19:28:36.604Z,100720.56
2023-02-03T19:31:08.910Z,100730.81
2023-02-03T19:33:36.466Z,100725.69
2023-02-03T19:36:03.970Z,100732.47
2023-02-03T19:38:30.414Z,100737.59
2023-02-03T19:40:56.845Z,100736.81
2023-02-03T19:43:24.582Z,100741.16
2023-02-03T19:45:51.590Z,100742.28
2023-02-03T19:48:18.283Z,100743.19
2023-02-03T19:50:47.256Z,100746.50
2023-02-03T19:53:15.035Z,100748.31
2023-02-03T19:55:45.648Z,100761.25
2023-02-03T19:58:13.030Z,100765.47
2023-02-03T20:00:40.038Z,100751.00
2023-02-03T20:03:06.774Z,100750.22
2023-02-03T20:05:34.025Z,100754.44
2023-02-03T20:08:00.472Z,100752.91
2023-02-03T20:10:27.770Z,100756.22
2023-02-03T20:12:54.875Z,100751.34
2023-02-03T20:15:21.878Z,100759.41
2023-02-03T20:17:48.485Z,100764.38
2023-02-03T20:20:16.492Z,100769.75
2023-02-03T20:22:43.253Z,100766.41
2023-02-03T20:25:09.711Z,100769.75
2023-02-03T20:27:36.154Z,100779.22
2023-02-03T20:30:04.052Z,100780.25
2023-02-03T20:32:30.481Z,100782.91
2023-02-03T20:34:57.600Z,100781.44
2023-02-03T20:37:24.008Z,100786.91
2023-02-03T20:39:50.431Z,100792.25
2023-02-03T20:42:17.983Z,100793.28
2023-02-03T20:44:44.572Z,100788.69
2023-02-03T20:47:12.888Z,100787.94
2023-02-03T20:49:39.297Z,100793.28
2023-02-03T20:52:10.767Z,100782.81
2023-02-03T20:54:37.202Z,100782.91
2023-02-03T20:57:09.306Z,100787.13
2023-02-03T20:59:36.659Z,100776.13
2023-02-03T21:02:10.830Z,100771.91
2023-02-03T21:04:55.776Z,100776.38
2023-02-03T21:07:24.089Z,100784.56
2023-02-03T21:09:50.513Z,100778.56
2023-02-03T21:12:17.239Z,100778.31
2023-02-03T21:14:45.543Z,100780.88
2023-02-03T21:17:15.807Z,100781.00
2023-02-03T21:19:42.345Z,100776.56
2023-02-03T21:22:21.129Z,100772.28
2023-02-03T21:25:00.993Z,100773.84
2023-02-03T21:27:31.089Z,100771.06
2023-02-03T21:29:59.114Z,100777.19
2023-02-03T21:32:34.150Z,100778.09
2023-02-03T21:35:00.525Z,100772.72
2023-02-03T21:37:39.172Z,100776.41
2023-02-03T21:40:21.481Z,100774.09
2023-02-03T21:42:47.993Z,100774.84
2023-02-03T21:45:14.304Z,100767.69
2023-02-03T21:47:41.362Z,100777.69
2023-02-03T21:50:46.503Z,100778.81
2023-02-03T21:53:12.819Z,100779.44
2023-02-03T21:55:41.220Z,100775.69
2023-02-03T21:58:34.562Z,100776.59
2023-02-03T22:01:03.133Z,100777.56
2023-02-03T22:03:36.600Z,100781.13
2023-02-03T22:06:09.011Z,100776.38
2023-02-03T22:08:49.993Z,100783.03
2023-02-03T22:11:18.540Z,100787.38
2023-02-03T22:13:45.037Z,100798.88
2023-02-03T22:16:14.097Z,100792.19
2023-02-03T22:18:41.342Z,100792.50
2023-02-03T22:21:07.896Z,100799.66
2023-02-03T22:23:35.085Z,100797.75
2023-02-03T22:26:01.604Z,100802.22
2023-02-03T22:28:27.977Z,100800.19
2023-02-03T22:30:54.500Z,100797.09
2023-02-03T22:33:20.919Z,100795.94
2023-02-03T22:35:47.330Z,100799.03
2023-02-03T22:38:13.777Z,100810.69
2023-02-03T22:40:40.310Z,100810.94
2023-02-03T22:43:06.731Z,100819.13
2023-02-03T22:45:33.459Z,100811.69
2023-02-03T22:48:00.627Z,100824.25
2023-02-03T22:50:35.449Z,100810.78
2023-02-03T22:53:04.099Z,100820.38
2023-02-03T22:55:31.202Z,100816.06
2023-02-03T22:57:58.482Z,100812.59
2023-02-03T23:00:25.234Z,100809.66
2023-02-03T23:02:51.759Z,100817.09
2023-02-03T23:05:18.859Z,100815.53
2023-02-03T23:07:45.735Z,100808.88
2023-02-03T23:10:17.136Z,100808.88
2023-02-03T23:12:43.799Z,100799.94
2023-02-03T23:15:10.866Z,100808.88
2023-02-03T23:17:37.303Z,100814.78
2023-02-03T23:20:05.784Z,100815.16
2023-02-03T23:22:32.234Z,100816.28
2023-02-03T23:25:00.198Z,100820.28
2023-02-03T23:27:27.028Z,100818.25
2023-02-03T23:29:53.497Z,100818.63
2023-02-03T23:32:19.945Z,100818.25
2023-02-03T23:35:04.920Z,100823.22
2023-02-03T23:37:31.542Z,100828.84
2023-02-03T23:39:57.961Z,100831.47
2023-02-03T23:42:24.430Z,100829.13
2023-02-03T23:44:51.007Z,100829.38
2023-02-03T23:47:17.425Z,100826.81
2023-02-03T23:49:43.880Z,100828.84
2023-02-03T23:52:10.312Z,100826.91
2023-02-03T23:54:36.742Z,100826.16
2023-02-03T23:57:04.783Z,100834.09
2023-02-03T23:59:31.561Z,100827.19
